Terminal Aerodrome Forecast
Issued by NWS

Home | Current Version | Previous Version | Text Only | Print | Product List | Glossary On
Versions: 1 2 3 4 5 6 7 8 9 10 11 12 13 14 15 16 17 18 19 20 21 22
000
FTUS46 KEKA 261742
TAFCEC
TAF
KCEC 261742Z 2618/2718 33012G17KT P6SM SCT015
     FM262000 33016G23KT P6SM SCT015 SCT250
      TEMPO 2700/2701 BKN015
     FM270400 34013G19KT P6SM SCT015 SCT250
     FM270600 34010KT P6SM FEW009 SCT015
     FM271100 35007KT 5SM BR SCT009 BKN015=

USA.gov is the U.S. government's official web portal to all federal, state and local government web resources and services.